createdAt,value
2024-03-05T00:00:39.103Z,5.14
2024-03-05T00:03:09.898Z,5.10
2024-03-05T00:05:39.604Z,5.07
2024-03-05T00:08:16.292Z,4.98
2024-03-05T00:10:45.640Z,4.98
2024-03-05T00:13:16.822Z,4.99
2024-03-05T00:15:46.983Z,4.95
2024-03-05T00:18:22.481Z,4.94
2024-03-05T00:20:53.942Z,4.94
2024-03-05T00:23:25.984Z,4.95
2024-03-05T00:25:58.284Z,4.92
2024-03-05T00:28:28.058Z,4.93
2024-03-05T00:30:59.459Z,4.90
2024-03-05T00:33:31.205Z,4.84
2024-03-05T00:36:00.763Z,4.85
2024-03-05T00:38:33.738Z,4.84
2024-03-05T00:41:08.250Z,4.85
2024-03-05T00:43:39.942Z,4.82
2024-03-05T00:46:11.648Z,4.69
2024-03-05T00:48:41.292Z,4.66
2024-03-05T00:51:10.982Z,4.69
2024-03-05T00:53:43.318Z,4.70
2024-03-05T00:56:14.904Z,4.72
2024-03-05T00:58:47.358Z,4.74
2024-03-05T01:01:17.658Z,4.77
2024-03-05T01:03:49.283Z,4.81
2024-03-05T01:06:20.238Z,4.81
2024-03-05T01:08:53.324Z,4.80
2024-03-05T01:11:25.462Z,4.83
2024-03-05T01:13:57.460Z,4.84
2024-03-05T01:16:27.816Z,4.84
2024-03-05T01:18:58.184Z,4.82
2024-03-05T01:21:29.820Z,4.77
2024-03-05T01:24:04.571Z,4.71
2024-03-05T01:26:35.981Z,4.65
2024-03-05T01:29:08.821Z,4.59
2024-03-05T01:31:40.280Z,4.56
2024-03-05T01:34:13.618Z,4.53
2024-03-05T01:36:46.122Z,4.50
2024-03-05T01:39:19.897Z,4.47
2024-03-05T01:41:54.028Z,4.46
2024-03-05T01:44:23.949Z,4.47
2024-03-05T01:46:57.931Z,4.46
2024-03-05T01:49:28.344Z,4.47
2024-03-05T01:52:02.915Z,4.42
2024-03-05T01:54:33.966Z,4.39
2024-03-05T01:57:03.330Z,4.29
2024-03-05T01:59:36.478Z,4.26
2024-03-05T02:02:11.787Z,4.17
2024-03-05T02:04:45.880Z,4.01
2024-03-05T02:07:19.916Z,4.01
2024-03-05T02:09:49.917Z,4.01
2024-03-05T02:12:20.413Z,4.00
2024-03-05T02:14:53.135Z,3.97
2024-03-05T02:17:28.436Z,3.98
2024-03-05T02:19:58.454Z,4.02
2024-03-05T02:22:28.531Z,4.03
2024-03-05T02:25:01.092Z,4.03
2024-03-05T02:27:39.936Z,4.02
2024-03-05T02:30:13.961Z,4.03
2024-03-05T02:32:43.691Z,3.99
2024-03-05T02:35:15.817Z,3.98
2024-03-05T02:37:45.179Z,3.98
2024-03-05T02:40:17.321Z,3.93
2024-03-05T02:42:48.718Z,3.88
2024-03-05T02:45:18.935Z,3.86
2024-03-05T02:47:49.753Z,3.87
2024-03-05T02:50:20.775Z,3.87
2024-03-05T02:52:51.515Z,3.78
2024-03-05T02:55:24.455Z,3.76
2024-03-05T02:57:55.283Z,3.82
2024-03-05T03:00:25.873Z,3.87
2024-03-05T03:03:00.186Z,3.93
2024-03-05T03:05:33.040Z,3.97
2024-03-05T03:08:02.457Z,3.99
2024-03-05T03:10:36.103Z,4.02
2024-03-05T03:13:05.924Z,4.03
2024-03-05T03:15:37.593Z,4.04
2024-03-05T03:18:29.227Z,4.05
2024-03-05T03:20:58.763Z,4.07
2024-03-05T03:23:31.292Z,4.09
2024-03-05T03:26:02.982Z,4.08
2024-03-05T03:28:35.292Z,4.10
2024-03-05T03:31:07.646Z,4.15
2024-03-05T03:33:37.841Z,4.19
2024-03-05T03:36:07.993Z,4.12
2024-03-05T03:38:40.972Z,3.94
2024-03-05T03:41:17.935Z,3.83
2024-03-05T03:43:50.620Z,3.80
2024-03-05T03:46:20.345Z,3.85
2024-03-05T03:48:52.388Z,3.91
2024-03-05T03:51:30.777Z,3.94
2024-03-05T03:54:05.887Z,3.96
2024-03-05T03:56:35.760Z,3.95
2024-03-05T03:59:06.329Z,3.87
2024-03-05T04:01:36.857Z,3.82
2024-03-05T04:04:07.212Z,3.84
2024-03-05T04:06:38.953Z,3.85
2024-03-05T04:09:11.266Z,3.87
2024-03-05T04:11:44.206Z,3.87
2024-03-05T04:14:16.774Z,3.87
2024-03-05T04:16:47.262Z,3.91
2024-03-05T04:19:17.646Z,3.94
2024-03-05T04:21:49.963Z,3.94
2024-03-05T04:24:19.711Z,3.95
2024-03-05T04:26:55.260Z,3.90
2024-03-05T04:29:33.505Z,3.84
2024-03-05T04:32:10.521Z,3.78
2024-03-05T04:35:02.104Z,3.66
2024-03-05T04:37:53.080Z,3.57
2024-03-05T04:40:25.492Z,3.37
2024-03-05T04:43:15.006Z,3.31
2024-03-05T04:45:47.264Z,3.34
2024-03-05T04:48:16.979Z,3.40
2024-03-05T04:50:47.666Z,3.46
2024-03-05T04:53:19.907Z,3.50
2024-03-05T04:55:49.519Z,3.57
2024-03-05T04:58:24.878Z,3.62
2024-03-05T05:00:57.184Z,3.65
2024-03-05T05:03:28.377Z,3.63
2024-03-05T05:06:02.419Z,3.59
2024-03-05T05:08:39.095Z,3.60
2024-03-05T05:11:10.128Z,3.62
2024-03-05T05:13:46.227Z,3.65
2024-03-05T05:16:17.613Z,3.71
2024-03-05T05:18:47.428Z,3.76
2024-03-05T05:21:18.272Z,3.81
2024-03-05T05:23:58.995Z,3.80
2024-03-05T05:26:30.577Z,3.67
2024-03-05T05:29:00.798Z,3.55
2024-03-05T05:31:31.432Z,3.52
2024-03-05T05:34:02.700Z,3.55
2024-03-05T05:36:35.387Z,3.58
2024-03-05T05:39:07.930Z,3.56
2024-03-05T05:41:39.751Z,3.53
2024-03-05T05:44:12.467Z,3.58
2024-03-05T05:46:44.358Z,3.65
2024-03-05T05:49:35.377Z,3.76
2024-03-05T05:52:09.620Z,3.86
2024-03-05T05:54:49.416Z,3.92
2024-03-05T05:57:19.485Z,3.94
2024-03-05T05:59:50.402Z,4.03
2024-03-05T06:02:30.669Z,4.10
2024-03-05T06:05:05.226Z,4.17
2024-03-05T06:07:42.171Z,4.21
2024-03-05T06:10:13.983Z,4.37
2024-03-05T06:12:53.559Z,4.53
2024-03-05T06:15:25.578Z,4.69
2024-03-05T06:17:57.499Z,4.93
2024-03-05T06:20:26.222Z,5.13
2024-03-05T06:23:00.083Z,5.30
2024-03-05T06:25:32.067Z,5.45
2024-03-05T06:28:03.951Z,5.60
2024-03-05T06:30:35.723Z,5.77
2024-03-05T06:33:11.716Z,5.94
2024-03-05T06:35:41.905Z,6.11
2024-03-05T06:38:10.271Z,6.22
2024-03-05T06:40:40.458Z,6.24
2024-03-05T06:43:31.060Z,6.29
2024-03-05T06:46:07.121Z,6.32
2024-03-05T06:48:44.209Z,6.35
2024-03-05T06:51:37.206Z,6.38
2024-03-05T06:54:29.048Z,6.41
2024-03-05T06:57:00.831Z,6.44
2024-03-05T06:59:31.234Z,6.50
2024-03-05T07:02:02.061Z,6.55
2024-03-05T07:04:31.543Z,6.53
2024-03-05T07:07:02.657Z,6.57
2024-03-05T07:09:33.511Z,6.67
2024-03-05T07:12:09.227Z,6.78
2024-03-05T07:14:40.997Z,6.87
2024-03-05T07:17:12.263Z,6.95
2024-03-05T07:19:44.612Z,7.04
2024-03-05T07:22:15.451Z,7.13
2024-03-05T07:24:48.018Z,7.18
2024-03-05T07:27:17.639Z,7.23
2024-03-05T07:29:48.333Z,7.26
2024-03-05T07:32:20.030Z,7.33
2024-03-05T07:34:49.579Z,7.41
2024-03-05T07:37:19.826Z,7.48
2024-03-05T07:39:51.581Z,7.56
2024-03-05T07:42:24.995Z,7.64
2024-03-05T07:44:57.737Z,7.67
2024-03-05T07:47:34.418Z,7.73
2024-03-05T07:50:07.045Z,7.86
2024-03-05T07:52:38.696Z,8.00
2024-03-05T07:55:21.634Z,8.13
2024-03-05T07:58:12.436Z,8.34
2024-03-05T08:00:44.417Z,8.57
2024-03-05T08:03:13.917Z,8.76
2024-03-05T08:05:44.653Z,8.95
2024-03-05T08:08:16.245Z,9.11
2024-03-05T08:10:58.266Z,9.24
2024-03-05T08:13:35.389Z,9.43
2024-03-05T08:16:06.176Z,9.60
2024-03-05T08:18:37.670Z,9.69
2024-03-05T08:21:09.335Z,9.82
2024-03-05T08:23:39.550Z,9.94
2024-03-05T08:26:12.940Z,10.05
2024-03-05T08:28:47.697Z,10.14
2024-03-05T08:31:18.428Z,10.23
2024-03-05T08:33:48.611Z,10.35
2024-03-05T08:36:20.987Z,10.48
2024-03-05T08:38:58.265Z,10.68
2024-03-05T08:41:28.785Z,10.92
2024-03-05T08:43:59.497Z,11.12
2024-03-05T08:46:29.098Z,11.26
2024-03-05T08:49:00.684Z,11.51
2024-03-05T08:51:33.132Z,11.78
2024-03-05T08:54:04.810Z,11.95
2024-03-05T08:56:48.757Z,12.07
2024-03-05T08:59:20.184Z,12.15
2024-03-05T09:01:53.970Z,12.19
2024-03-05T09:04:22.880Z,12.31
2024-03-05T09:06:52.328Z,12.48
2024-03-05T09:09:21.903Z,12.61
2024-03-05T09:11:54.233Z,12.72
2024-03-05T09:14:24.727Z,12.80
2024-03-05T09:16:56.749Z,12.78
2024-03-05T09:19:29.335Z,12.79
2024-03-05T09:22:05.815Z,12.86
2024-03-05T09:24:39.708Z,12.92
2024-03-05T09:27:11.879Z,12.94
2024-03-05T09:29:44.883Z,12.92
2024-03-05T09:32:26.159Z,12.90
2024-03-05T09:35:01.081Z,12.94
2024-03-05T09:37:38.747Z,13.05
2024-03-05T09:40:22.456Z,13.14
2024-03-05T09:42:59.897Z,13.26
2024-03-05T09:45:32.311Z,13.43
2024-03-05T09:48:08.294Z,13.50
2024-03-05T09:50:40.020Z,13.56
2024-03-05T09:53:15.075Z,13.71
2024-03-05T09:55:52.274Z,13.88
2024-03-05T09:58:37.752Z,13.97
2024-03-05T10:01:10.370Z,13.99
2024-03-05T10:03:46.322Z,14.13
2024-03-05T10:06:20.324Z,14.36
2024-03-05T10:08:51.972Z,14.58
2024-03-05T10:11:25.439Z,14.71
2024-03-05T10:13:55.809Z,14.80
2024-03-05T10:16:27.788Z,14.86
2024-03-05T10:18:56.823Z,14.87
2024-03-05T10:21:34.978Z,14.83
2024-03-05T10:24:07.231Z,14.86
2024-03-05T10:26:40.484Z,14.87
2024-03-05T10:29:13.940Z,14.90
2024-03-05T10:31:46.406Z,14.94
2024-03-05T10:34:18.686Z,14.96
2024-03-05T10:36:50.197Z,14.99
2024-03-05T10:39:20.568Z,15.06
2024-03-05T10:41:54.031Z,15.14
2024-03-05T10:44:23.771Z,15.21
2024-03-05T10:46:54.999Z,15.26
2024-03-05T10:49:26.880Z,15.35
2024-03-05T10:52:00.437Z,15.45
2024-03-05T10:54:32.018Z,15.54
2024-03-05T10:57:04.991Z,15.63
2024-03-05T10:59:49.370Z,15.70
2024-03-05T11:02:18.173Z,15.78
2024-03-05T11:04:57.925Z,15.84
2024-03-05T11:07:31.064Z,15.92
2024-03-05T11:10:03.056Z,15.98
2024-03-05T11:12:47.732Z,16.07
2024-03-05T11:15:17.563Z,16.18
2024-03-05T11:17:58.035Z,16.30
2024-03-05T11:21:13.651Z,16.41
2024-03-05T11:24:00.874Z,16.50
2024-03-05T11:26:33.914Z,16.53
2024-03-05T11:29:19.108Z,16.54
2024-03-05T11:31:52.782Z,16.54
2024-03-05T11:34:23.670Z,16.54
2024-03-05T11:37:13.200Z,16.55
2024-03-05T11:39:47.177Z,16.61
2024-03-05T11:42:21.740Z,16.66
2024-03-05T11:44:55.128Z,16.67
2024-03-05T11:47:26.945Z,16.78
2024-03-05T11:50:05.130Z,16.92
2024-03-05T11:52:36.351Z,17.03
2024-03-05T11:55:12.145Z,17.11
2024-03-05T11:57:43.456Z,17.19
2024-03-05T12:00:17.910Z,17.21
2024-03-05T12:02:59.361Z,17.20
2024-03-05T12:05:32.013Z,17.24
2024-03-05T12:08:10.401Z,17.26
2024-03-05T12:10:42.192Z,17.16
2024-03-05T12:13:20.595Z,17.16
2024-03-05T12:15:52.291Z,17.16
2024-03-05T12:18:23.103Z,17.19
2024-03-05T12:20:57.218Z,17.23
2024-03-05T12:23:41.301Z,17.29
2024-03-05T12:26:12.729Z,17.39
2024-03-05T12:28:42.726Z,17.46
2024-03-05T12:31:13.183Z,17.54
2024-03-05T12:33:45.994Z,17.52
2024-03-05T12:36:17.560Z,17.41
2024-03-05T12:38:48.068Z,17.39
2024-03-05T12:41:29.509Z,17.43
2024-03-05T12:44:01.094Z,17.43
2024-03-05T12:46:38.806Z,17.37
2024-03-05T12:49:22.849Z,17.34
2024-03-05T12:52:03.821Z,17.36
2024-03-05T12:55:04.967Z,17.44
2024-03-05T12:57:38.972Z,17.51
2024-03-05T13:00:14.877Z,17.59
2024-03-05T13:02:45.060Z,17.68
2024-03-05T13:05:14.612Z,17.74
2024-03-05T13:07:47.473Z,17.82
2024-03-05T13:10:16.944Z,17.89
2024-03-05T13:12:48.697Z,17.99
2024-03-05T13:15:20.143Z,18.07
2024-03-05T13:17:49.404Z,18.12
2024-03-05T13:20:21.064Z,18.14
2024-03-05T13:22:55.797Z,18.20
2024-03-05T13:25:27.396Z,18.29
2024-03-05T13:28:02.074Z,18.34
2024-03-05T13:30:34.598Z,18.30
2024-03-05T13:33:06.424Z,18.32
2024-03-05T13:35:37.262Z,18.40
2024-03-05T13:38:09.524Z,18.44
2024-03-05T13:40:39.143Z,18.46
2024-03-05T13:43:12.793Z,18.43
2024-03-05T13:45:42.112Z,18.34
2024-03-05T13:48:13.004Z,18.28
2024-03-05T13:51:11.851Z,18.19
2024-03-05T13:53:44.161Z,18.06
2024-03-05T13:56:47.420Z,17.96
2024-03-05T13:59:28.572Z,17.90
2024-03-05T14:02:00.929Z,17.81
2024-03-05T14:04:32.563Z,17.72
2024-03-05T14:07:08.180Z,17.62
2024-03-05T14:09:41.789Z,17.54
2024-03-05T14:12:13.424Z,17.47
2024-03-05T14:18:23.191Z,17.22
2024-03-05T14:21:14.625Z,17.11
2024-03-05T14:23:44.301Z,16.95
2024-03-05T14:26:19.236Z,16.86
2024-03-05T14:28:51.091Z,16.78
2024-03-05T14:31:21.114Z,16.73
2024-03-05T14:33:54.344Z,16.65
2024-03-05T14:36:27.263Z,16.58
2024-03-05T14:38:58.963Z,16.52
2024-03-05T14:41:28.905Z,16.48
2024-03-05T14:44:11.971Z,16.40
2024-03-05T14:46:48.831Z,16.27
2024-03-05T14:49:22.514Z,16.09
2024-03-05T14:51:55.964Z,15.97
2024-03-05T14:54:25.503Z,15.86
2024-03-05T14:56:54.737Z,15.79
2024-03-05T14:59:25.270Z,15.71
2024-03-05T15:01:56.308Z,15.62
2024-03-05T15:04:29.866Z,15.57
2024-03-05T15:06:59.824Z,15.55
2024-03-05T15:09:35.043Z,15.57
2024-03-05T15:12:06.371Z,15.56
2024-03-05T15:14:35.661Z,15.49
2024-03-05T15:17:10.851Z,15.37
2024-03-05T15:19:50.193Z,15.23
2024-03-05T15:22:27.305Z,15.10
2024-03-05T15:24:56.745Z,14.98
2024-03-05T15:27:31.366Z,14.87
2024-03-05T15:30:02.037Z,14.75
2024-03-05T15:32:33.842Z,14.66
2024-03-05T15:35:06.296Z,14.57
2024-03-05T15:37:38.023Z,14.52
2024-03-05T15:40:18.584Z,14.48
2024-03-05T15:42:53.999Z,14.48
2024-03-05T15:45:27.256Z,14.48
2024-03-05T15:47:57.224Z,14.51
2024-03-05T15:50:31.876Z,14.52
2024-03-05T15:53:04.554Z,14.52
2024-03-05T15:55:46.328Z,14.50
2024-03-05T15:58:42.493Z,14.43
2024-03-05T16:01:27.779Z,14.38
2024-03-05T16:04:15.331Z,14.33
2024-03-05T16:06:53.381Z,14.24
2024-03-05T16:09:28.654Z,14.16
2024-03-05T16:11:59.639Z,14.09
2024-03-05T16:14:48.267Z,14.02
2024-03-05T16:17:19.371Z,13.90
2024-03-05T16:19:55.534Z,13.77
2024-03-05T16:22:24.981Z,13.70
2024-03-05T16:24:57.334Z,13.67
2024-03-05T16:27:28.795Z,13.61
2024-03-05T16:29:58.088Z,13.54
2024-03-05T16:32:27.790Z,13.49
2024-03-05T16:35:01.196Z,13.44
2024-03-05T16:37:37.863Z,13.38
2024-03-05T16:40:29.274Z,13.31
2024-03-05T16:43:11.479Z,13.24
2024-03-05T16:45:41.922Z,13.15
2024-03-05T16:48:12.056Z,13.07
2024-03-05T16:50:46.706Z,12.97
2024-03-05T16:53:16.581Z,12.88
2024-03-05T16:55:50.629Z,12.81
2024-03-05T16:58:23.261Z,12.75
2024-03-05T17:00:54.083Z,12.69
2024-03-05T17:03:31.638Z,12.61
2024-03-05T17:06:05.680Z,12.53
2024-03-05T17:08:36.581Z,12.45
2024-03-05T17:11:18.259Z,12.36
2024-03-05T17:13:52.426Z,12.30
2024-03-05T17:16:26.698Z,12.26
2024-03-05T17:18:56.852Z,12.23
2024-03-05T17:21:29.234Z,12.20
2024-03-05T17:24:01.122Z,12.18
2024-03-05T17:26:33.052Z,12.18
2024-03-05T17:29:12.588Z,12.17
2024-03-05T17:31:50.960Z,12.16
2024-03-05T17:34:22.787Z,12.14
2024-03-05T17:36:52.096Z,12.10
2024-03-05T17:39:26.618Z,12.08
2024-03-05T17:42:00.484Z,12.06
2024-03-05T17:44:40.241Z,12.04
2024-03-05T17:47:13.359Z,12.01
2024-03-05T17:49:55.694Z,11.99
2024-03-05T17:52:31.368Z,11.95
2024-03-05T17:55:06.159Z,11.91
2024-03-05T17:57:34.625Z,11.90
2024-03-05T18:00:28.311Z,11.88
2024-03-05T18:03:03.435Z,11.83
2024-03-05T18:05:36.774Z,11.79
2024-03-05T18:08:11.959Z,11.76
2024-03-05T18:10:45.641Z,11.73
2024-03-05T18:13:17.050Z,11.70
2024-03-05T18:15:50.720Z,11.69
2024-03-05T18:18:31.691Z,11.66
2024-03-05T18:21:03.694Z,11.63
2024-03-05T18:23:39.641Z,11.61
2024-03-05T18:26:13.765Z,11.59
2024-03-05T18:28:44.814Z,11.57
2024-03-05T18:31:17.561Z,11.54
2024-03-05T18:33:56.319Z,11.52
2024-03-05T18:36:30.042Z,11.49
2024-03-05T18:39:09.796Z,11.46
2024-03-05T18:41:40.216Z,11.44
2024-03-05T18:44:16.104Z,11.41
2024-03-05T18:46:48.714Z,11.37
2024-03-05T18:49:24.162Z,11.32
2024-03-05T18:52:07.583Z,11.27
2024-03-05T18:54:37.452Z,11.22
2024-03-05T18:57:09.504Z,11.19
2024-03-05T18:59:41.663Z,11.14
2024-03-05T19:02:13.474Z,11.09
2024-03-05T19:04:44.078Z,11.03
2024-03-05T19:07:14.481Z,10.97
2024-03-05T19:09:50.837Z,10.93
2024-03-05T19:12:30.127Z,10.88
2024-03-05T19:15:06.083Z,10.81
2024-03-05T19:17:35.663Z,10.76
2024-03-05T19:20:11.502Z,10.72
2024-03-05T19:22:45.619Z,10.66
2024-03-05T19:25:20.264Z,10.59
2024-03-05T19:28:01.713Z,10.54
2024-03-05T19:30:34.086Z,10.50
2024-03-05T19:33:06.826Z,10.48
2024-03-05T19:35:46.134Z,10.45
2024-03-05T19:38:26.750Z,10.41
2024-03-05T19:40:58.908Z,10.35
2024-03-05T19:43:30.903Z,10.30
2024-03-05T19:46:09.708Z,10.24
2024-03-05T19:48:39.657Z,10.19
2024-03-05T19:51:14.167Z,10.16
2024-03-05T19:53:44.319Z,10.12
2024-03-05T19:56:14.754Z,10.06
2024-03-05T19:58:44.774Z,10.00
2024-03-05T20:04:57.385Z,9.94
2024-03-05T20:07:40.418Z,9.90
2024-03-05T20:10:23.636Z,9.84
2024-03-05T20:12:57.647Z,9.81
2024-03-05T20:15:29.184Z,9.77
2024-03-05T20:17:58.600Z,9.75
2024-03-05T20:20:30.130Z,9.72
2024-03-05T20:23:14.102Z,9.67
2024-03-05T20:25:48.232Z,9.64
2024-03-05T20:28:19.621Z,9.60
2024-03-05T20:30:52.932Z,9.58
2024-03-05T20:33:41.812Z,9.53
2024-03-05T20:36:15.635Z,9.50
2024-03-05T20:39:08.799Z,9.49
2024-03-05T20:41:45.684Z,9.50
2024-03-05T20:44:23.131Z,9.50
2024-03-05T20:47:01.975Z,9.47
2024-03-05T20:49:53.569Z,9.43
2024-03-05T20:52:32.717Z,9.35
2024-03-05T20:55:21.224Z,9.33
2024-03-05T20:57:53.889Z,9.32
2024-03-05T21:00:27.276Z,9.22
2024-03-05T21:03:00.187Z,9.11
2024-03-05T21:05:31.626Z,9.05
2024-03-05T21:08:03.379Z,9.00
2024-03-05T21:10:34.197Z,8.97
2024-03-05T21:13:10.801Z,8.92
2024-03-05T21:15:42.344Z,8.87
2024-03-05T21:18:15.196Z,8.84
2024-03-05T21:20:51.408Z,8.83
2024-03-05T21:23:24.436Z,8.77
2024-03-05T21:26:14.068Z,8.69
2024-03-05T21:28:58.230Z,8.62
2024-03-05T21:31:36.660Z,8.56
2024-03-05T21:34:07.084Z,8.51
2024-03-05T21:36:51.478Z,8.44
2024-03-05T21:39:38.989Z,8.31
2024-03-05T21:42:10.565Z,8.16
2024-03-05T21:45:00.112Z,8.02
2024-03-05T21:47:35.060Z,7.85
2024-03-05T21:50:13.142Z,7.73
2024-03-05T21:52:53.068Z,7.62
2024-03-05T21:55:24.984Z,7.53
2024-03-05T21:57:58.149Z,7.44
2024-03-05T22:00:37.029Z,7.40
2024-03-05T22:03:06.755Z,7.39
2024-03-05T22:05:41.853Z,7.37
2024-03-05T22:08:25.111Z,7.38
2024-03-05T22:10:55.545Z,7.40
2024-03-05T22:13:24.760Z,7.40
2024-03-05T22:15:57.092Z,7.42
2024-03-05T22:18:29.578Z,7.36
2024-03-05T22:21:06.256Z,7.28
2024-03-05T22:24:00.691Z,7.17
2024-03-05T22:26:49.256Z,7.14
2024-03-05T22:29:27.033Z,7.14
2024-03-05T22:31:57.697Z,7.14
2024-03-05T22:34:33.431Z,7.16
2024-03-05T22:37:30.649Z,7.18
2024-03-05T22:40:10.299Z,7.17
2024-03-05T22:42:40.968Z,7.13
2024-03-05T22:45:19.218Z,7.12
2024-03-05T22:48:03.529Z,7.10
2024-03-05T22:50:58.992Z,7.09
2024-03-05T22:53:49.394Z,7.07
2024-03-05T22:56:25.190Z,7.05
2024-03-05T22:58:57.021Z,7.04
2024-03-05T23:01:37.453Z,6.98
2024-03-05T23:04:07.953Z,6.87
2024-03-05T23:06:37.738Z,6.79
2024-03-05T23:09:09.050Z,6.75
2024-03-05T23:11:43.409Z,6.74
2024-03-05T23:14:19.838Z,6.75
2024-03-05T23:16:52.709Z,6.73
2024-03-05T23:19:24.080Z,6.77
2024-03-05T23:21:54.613Z,6.80
2024-03-05T23:24:24.685Z,6.84
2024-03-05T23:27:00.859Z,6.86
2024-03-05T23:29:35.415Z,6.82
2024-03-05T23:32:05.248Z,6.78
2024-03-05T23:34:38.749Z,6.75
2024-03-05T23:37:15.391Z,6.71
2024-03-05T23:39:49.075Z,6.70
2024-03-05T23:42:20.341Z,6.70
2024-03-05T23:44:50.042Z,6.70
2024-03-05T23:47:26.705Z,6.60
2024-03-05T23:50:02.762Z,6.53
2024-03-05T23:52:35.131Z,6.53
2024-03-05T23:55:07.481Z,6.55
2024-03-05T23:57:45.950Z,6.57
